createdAt,value
2023-02-05T00:00:04.052Z,7.78
2023-02-05T00:02:30.613Z,7.93
2023-02-05T00:04:57.090Z,7.60
2023-02-05T00:07:23.930Z,7.78
2023-02-05T00:09:50.405Z,7.00
2023-02-05T00:12:16.857Z,6.75
2023-02-05T00:14:43.368Z,7.00
2023-02-05T00:17:09.865Z,7.45
2023-02-05T00:19:36.452Z,6.15
2023-02-05T00:22:02.919Z,7.70
2023-02-05T00:24:29.372Z,7.10
2023-02-05T00:26:56.079Z,7.10
2023-02-05T00:29:22.594Z,8.57
2023-02-05T00:31:49.649Z,7.80
2023-02-05T00:34:17.055Z,7.80
2023-02-05T00:36:43.500Z,7.72
2023-02-05T00:39:11.392Z,8.77
2023-02-05T00:41:38.652Z,6.17
2023-02-05T00:44:05.403Z,6.80
2023-02-05T00:46:31.831Z,6.43
2023-02-05T00:48:58.551Z,7.18
2023-02-05T00:51:25.007Z,7.07
2023-02-05T00:53:51.530Z,6.30
2023-02-05T00:56:18.050Z,6.60
2023-02-05T00:58:47.773Z,6.18
2023-02-05T01:01:15.517Z,6.75
2023-02-05T01:03:42.233Z,7.13
2023-02-05T01:06:09.303Z,6.95
2023-02-05T01:08:36.256Z,7.75
2023-02-05T01:11:07.590Z,6.30
2023-02-05T01:13:34.357Z,24.92
2023-02-05T01:16:00.883Z,9.13
2023-02-05T01:18:27.616Z,6.80
2023-02-05T01:20:54.101Z,7.80
2023-02-05T01:23:20.616Z,6.93
2023-02-05T01:25:47.267Z,7.03
2023-02-05T01:28:14.141Z,6.90
2023-02-05T01:30:40.684Z,8.20
2023-02-05T01:33:07.149Z,7.43
2023-02-05T01:35:33.996Z,7.17
2023-02-05T01:38:00.709Z,7.20
2023-02-05T01:40:27.239Z,7.40
2023-02-05T01:42:53.812Z,6.95
2023-02-05T01:45:23.344Z,6.40
2023-02-05T01:47:50.759Z,7.03
2023-02-05T01:50:20.711Z,7.68
2023-02-05T01:52:47.292Z,5.60
2023-02-05T01:55:14.612Z,7.03
2023-02-05T01:57:41.785Z,8.63
2023-02-05T02:00:10.010Z,7.30
2023-02-05T02:02:37.913Z,8.40
2023-02-05T02:05:11.560Z,6.78
2023-02-05T02:07:38.239Z,7.27
2023-02-05T02:10:06.079Z,7.28
2023-02-05T02:12:35.312Z,6.00
2023-02-05T02:15:10.572Z,8.00
2023-02-05T02:17:41.051Z,6.03
2023-02-05T02:20:14.628Z,5.30
2023-02-05T02:22:56.224Z,7.53
2023-02-05T02:25:43.726Z,7.22
2023-02-05T02:28:31.669Z,7.47
2023-02-05T02:31:16.702Z,8.47
2023-02-05T02:34:00.270Z,7.27
2023-02-05T02:36:58.560Z,7.20
2023-02-05T02:39:40.075Z,5.10
2023-02-05T02:42:15.253Z,4.88
2023-02-05T02:44:48.978Z,6.75
2023-02-05T02:47:22.008Z,7.43
2023-02-05T02:50:08.648Z,7.17
2023-02-05T02:52:40.309Z,6.78
2023-02-05T02:55:11.115Z,6.65
2023-02-05T02:57:40.406Z,8.83
2023-02-05T03:00:16.344Z,6.10
2023-02-05T03:02:45.423Z,8.03
2023-02-05T03:05:17.613Z,7.83
2023-02-05T03:07:52.829Z,6.60
2023-02-05T03:10:40.924Z,7.30
2023-02-05T03:13:10.220Z,5.93
2023-02-05T03:15:38.609Z,6.17
2023-02-05T03:18:05.511Z,6.93
2023-02-05T03:20:38.886Z,7.43
2023-02-05T03:23:05.429Z,5.93
2023-02-05T03:25:31.959Z,6.90
2023-02-05T03:27:59.231Z,6.60
2023-02-05T03:30:33.471Z,7.40
2023-02-05T03:33:15.892Z,5.73
2023-02-05T03:35:52.995Z,5.77
2023-02-05T03:38:32.252Z,6.27
2023-02-05T03:41:10.083Z,6.87
2023-02-05T03:43:48.529Z,7.47
2023-02-05T03:46:24.894Z,6.20
2023-02-05T03:49:06.980Z,6.23
2023-02-05T03:54:26.515Z,5.33
2023-02-05T03:57:20.712Z,6.67
2023-02-05T03:59:48.984Z,5.90
2023-02-05T04:02:17.117Z,6.03
2023-02-05T04:04:44.640Z,6.87
2023-02-05T04:07:11.577Z,5.80
2023-02-05T04:09:38.026Z,6.60
2023-02-05T04:12:04.620Z,6.20
2023-02-05T04:14:31.100Z,7.17
2023-02-05T04:16:57.644Z,7.50
2023-02-05T04:19:24.178Z,7.97
2023-02-05T04:21:50.585Z,7.83
2023-02-05T04:24:17.085Z,5.53
2023-02-05T04:26:43.642Z,7.17
2023-02-05T04:29:10.069Z,6.63
2023-02-05T04:31:37.480Z,9.57
2023-02-05T04:34:03.970Z,6.17
2023-02-05T04:36:30.376Z,6.90
2023-02-05T04:38:56.779Z,8.13
2023-02-05T04:41:23.215Z,6.47
2023-02-05T04:43:49.707Z,7.20
2023-02-05T04:46:16.360Z,5.97
2023-02-05T04:48:42.820Z,8.40
2023-02-05T04:51:11.400Z,7.80
2023-02-05T04:53:39.222Z,5.93
2023-02-05T04:56:05.929Z,5.80
2023-02-05T04:58:32.485Z,4.93
2023-02-05T05:00:58.987Z,7.53
2023-02-05T05:03:25.520Z,7.10
2023-02-05T05:05:52.155Z,7.03
2023-02-05T05:08:21.600Z,7.50
2023-02-05T05:10:48.100Z,7.23
2023-02-05T05:13:14.512Z,7.73
2023-02-05T05:15:40.970Z,6.23
2023-02-05T05:18:07.435Z,7.07
2023-02-05T05:20:33.864Z,6.37
2023-02-05T05:23:00.866Z,6.73
2023-02-05T05:25:28.013Z,7.40
2023-02-05T05:27:54.464Z,7.00
2023-02-05T05:30:21.000Z,6.50
2023-02-05T05:32:47.393Z,5.97
2023-02-05T05:35:13.924Z,6.50
2023-02-05T05:37:40.318Z,7.43
2023-02-05T05:40:25.601Z,6.10
2023-02-05T05:43:10.638Z,7.07
2023-02-05T05:45:37.148Z,8.37
2023-02-05T05:48:04.402Z,6.33
2023-02-05T05:50:30.815Z,7.23
2023-02-05T05:52:57.208Z,8.20
2023-02-05T05:55:23.674Z,6.37
2023-02-05T05:57:50.177Z,7.87
2023-02-05T06:00:16.990Z,7.50
2023-02-05T06:02:44.682Z,7.17
2023-02-05T06:05:11.751Z,6.57
2023-02-05T06:07:38.195Z,6.60
2023-02-05T06:10:04.913Z,7.13
2023-02-05T06:12:31.479Z,5.80
2023-02-05T06:14:57.938Z,5.90
2023-02-05T06:17:24.374Z,6.30
2023-02-05T06:19:50.856Z,6.77
2023-02-05T06:22:17.265Z,7.57
2023-02-05T06:24:43.749Z,7.23
2023-02-05T06:27:10.166Z,8.83
2023-02-05T06:29:36.584Z,7.40
2023-02-05T06:32:03.132Z,10.47
2023-02-05T06:34:29.623Z,11.30
2023-02-05T06:36:56.293Z,9.07
2023-02-05T06:39:24.898Z,7.40
2023-02-05T06:41:51.826Z,7.23
2023-02-05T06:44:18.240Z,8.37
2023-02-05T06:46:44.682Z,7.03
2023-02-05T06:49:11.111Z,6.93
2023-02-05T06:51:37.533Z,9.43
2023-02-05T06:54:04.043Z,6.80
2023-02-05T06:56:30.656Z,6.40
2023-02-05T06:58:57.034Z,7.37
2023-02-05T07:01:23.541Z,8.00
2023-02-05T07:03:54.418Z,9.20
2023-02-05T07:06:21.384Z,8.27
2023-02-05T07:08:47.806Z,10.13
2023-02-05T07:11:14.532Z,8.87
2023-02-05T07:13:40.992Z,16.73
2023-02-05T07:16:07.820Z,24.50
2023-02-05T07:18:34.891Z,14.27
2023-02-05T07:21:06.845Z,12.57
2023-02-05T07:23:33.598Z,11.87
2023-02-05T07:26:07.930Z,11.20
2023-02-05T07:28:34.350Z,12.17
2023-02-05T07:31:08.601Z,13.37
2023-02-05T07:33:36.992Z,13.63
2023-02-05T07:36:08.290Z,13.57
2023-02-05T07:38:36.450Z,11.20
2023-02-05T07:41:08.186Z,14.03
2023-02-05T07:43:35.552Z,11.60
2023-02-05T07:46:05.260Z,11.63
2023-02-05T07:48:32.225Z,16.52
2023-02-05T07:50:59.111Z,12.23
2023-02-05T07:53:26.048Z,11.63
2023-02-05T07:55:52.499Z,10.27
2023-02-05T07:58:19.325Z,9.27
2023-02-05T08:00:46.311Z,9.57
2023-02-05T08:03:13.080Z,9.30
2023-02-05T08:05:40.236Z,11.67
2023-02-05T08:08:07.707Z,9.87
2023-02-05T08:10:35.112Z,10.13
2023-02-05T08:13:01.599Z,9.63
2023-02-05T08:15:28.234Z,8.90
2023-02-05T08:17:54.756Z,9.75
2023-02-05T08:20:22.233Z,10.07
2023-02-05T08:22:48.700Z,12.38
2023-02-05T08:25:16.190Z,11.75
2023-02-05T08:27:43.303Z,11.65
2023-02-05T08:30:13.020Z,10.07
2023-02-05T08:32:39.439Z,10.40
2023-02-05T08:35:06.301Z,10.63
2023-02-05T08:37:35.852Z,12.70
2023-02-05T08:40:02.255Z,10.30
2023-02-05T08:42:28.731Z,13.05
2023-02-05T08:44:58.443Z,13.57
2023-02-05T08:47:26.129Z,13.27
2023-02-05T08:49:53.713Z,12.80
2023-02-05T08:52:20.264Z,15.35
2023-02-05T08:54:48.097Z,14.40
2023-02-05T08:57:16.326Z,13.07
2023-02-05T08:59:42.793Z,13.10
2023-02-05T09:02:14.755Z,13.23
2023-02-05T09:07:07.786Z,15.88
2023-02-05T09:09:35.264Z,16.17
2023-02-05T09:12:01.669Z,22.15
2023-02-05T09:14:28.176Z,21.02
2023-02-05T09:16:54.594Z,17.40
2023-02-05T09:19:21.012Z,14.32
2023-02-05T09:21:47.462Z,13.93
2023-02-05T09:24:14.979Z,17.92
2023-02-05T09:26:41.568Z,14.75
2023-02-05T09:29:08.133Z,13.85
2023-02-05T09:31:34.745Z,12.55
2023-02-05T09:34:03.277Z,20.65
2023-02-05T09:36:29.776Z,12.30
2023-02-05T09:39:11.892Z,12.43
2023-02-05T09:42:04.554Z,16.27
2023-02-05T09:44:50.290Z,14.48
2023-02-05T09:47:38.612Z,11.82
2023-02-05T09:50:21.455Z,13.23
2023-02-05T09:52:51.121Z,11.35
2023-02-05T09:55:24.004Z,10.25
2023-02-05T09:57:53.491Z,12.35
2023-02-05T10:00:27.597Z,13.40
2023-02-05T10:03:07.781Z,11.52
2023-02-05T10:05:42.977Z,12.25
2023-02-05T10:08:19.269Z,12.82
2023-02-05T10:10:50.145Z,15.25
2023-02-05T10:13:35.007Z,12.65
2023-02-05T10:16:26.197Z,10.10
2023-02-05T10:19:14.325Z,13.40
2023-02-05T10:22:16.272Z,12.85
2023-02-05T10:25:25.075Z,14.55
2023-02-05T10:28:06.329Z,10.85
2023-02-05T10:30:48.695Z,10.38
2023-02-05T10:33:18.933Z,11.70
2023-02-05T10:36:05.087Z,12.40
2023-02-05T10:38:36.023Z,10.82
2023-02-05T10:41:17.389Z,12.87
2023-02-05T10:44:15.059Z,12.48
2023-02-05T10:46:44.014Z,12.73
2023-02-05T10:49:18.877Z,12.23
2023-02-05T10:51:46.051Z,12.40
2023-02-05T10:54:20.550Z,11.63
2023-02-05T10:56:47.921Z,14.02
2023-02-05T10:59:27.822Z,13.57
2023-02-05T11:01:58.233Z,14.10
2023-02-05T11:04:34.940Z,13.55
2023-02-05T11:07:06.127Z,11.75
2023-02-05T11:09:35.326Z,10.48
2023-02-05T11:12:05.160Z,13.82
2023-02-05T11:14:40.648Z,12.25
2023-02-05T11:17:22.264Z,16.45
2023-02-05T11:20:22.957Z,12.43
2023-02-05T11:22:49.852Z,11.90
2023-02-05T11:25:18.165Z,9.80
2023-02-05T11:27:58.745Z,12.18
2023-02-05T11:33:26.355Z,10.13
2023-02-05T11:36:00.090Z,11.55
2023-02-05T11:38:50.608Z,12.60
2023-02-05T11:41:32.070Z,16.63
2023-02-05T11:44:03.961Z,8.95
2023-02-05T11:49:03.331Z,12.95
2023-02-05T11:51:34.599Z,9.90
2023-02-05T11:54:09.102Z,11.15
2023-02-05T11:56:35.596Z,12.65
2023-02-05T11:59:05.606Z,10.95
2023-02-05T12:01:36.201Z,9.60
2023-02-05T12:04:11.787Z,8.77
2023-02-05T12:06:50.041Z,9.48
2023-02-05T12:09:21.445Z,9.43
2023-02-05T12:12:18.503Z,9.13
2023-02-05T12:14:56.354Z,9.73
2023-02-05T12:17:34.311Z,10.88
2023-02-05T12:20:19.429Z,8.32
2023-02-05T12:23:28.835Z,8.10
2023-02-05T12:26:26.417Z,6.75
2023-02-05T12:29:24.480Z,6.97
2023-02-05T12:31:59.779Z,7.60
2023-02-05T12:34:38.565Z,7.22
2023-02-05T12:37:42.937Z,7.35
2023-02-05T12:40:34.213Z,8.27
2023-02-05T12:43:40.967Z,8.10
2023-02-05T12:46:28.825Z,7.85
2023-02-05T12:49:20.656Z,7.95
2023-02-05T12:52:05.709Z,5.43
2023-02-05T12:54:55.163Z,6.38
2023-02-05T12:57:34.010Z,6.97
2023-02-05T13:00:11.768Z,6.10
2023-02-05T13:02:47.841Z,8.05
2023-02-05T13:05:34.674Z,7.78
2023-02-05T13:08:21.063Z,8.32
2023-02-05T13:10:54.915Z,6.43
2023-02-05T13:13:28.003Z,8.32
2023-02-05T13:16:03.894Z,8.48
2023-02-05T13:18:35.455Z,8.75
2023-02-05T13:21:24.895Z,7.90
2023-02-05T13:24:26.617Z,6.80
2023-02-05T13:27:12.015Z,7.97
2023-02-05T13:29:51.403Z,7.05
2023-02-05T13:32:23.516Z,12.95
2023-02-05T13:37:53.242Z,8.13
2023-02-05T13:40:44.369Z,8.88
2023-02-05T13:43:16.997Z,9.85
2023-02-05T13:46:22.976Z,9.05
2023-02-05T13:49:32.593Z,9.35
2023-02-05T13:52:27.758Z,9.15
2023-02-05T13:55:15.387Z,7.60
2023-02-05T13:58:09.891Z,8.80
2023-02-05T14:00:40.267Z,7.57
2023-02-05T14:03:21.573Z,8.52
2023-02-05T14:05:48.047Z,8.27
2023-02-05T14:08:23.089Z,8.02
2023-02-05T14:10:59.051Z,8.43
2023-02-05T14:13:34.646Z,8.90
2023-02-05T14:16:26.115Z,8.40
2023-02-05T14:19:29.579Z,8.18
2023-02-05T14:22:03.245Z,8.15
2023-02-05T14:24:44.152Z,11.30
2023-02-05T14:27:39.709Z,10.70
2023-02-05T14:30:30.873Z,12.13
2023-02-05T14:33:03.778Z,9.98
2023-02-05T14:35:39.888Z,9.95
2023-02-05T14:38:23.316Z,12.02
2023-02-05T14:41:11.940Z,13.85
2023-02-05T14:43:43.447Z,10.13
2023-02-05T14:46:30.141Z,10.07
2023-02-05T14:48:59.785Z,11.63
2023-02-05T14:51:32.140Z,9.00
2023-02-05T14:54:23.597Z,9.55
2023-02-05T14:56:54.098Z,9.73
2023-02-05T14:59:29.353Z,9.82
2023-02-05T15:01:57.368Z,13.10
2023-02-05T15:04:46.051Z,9.85
2023-02-05T15:07:21.318Z,8.98
2023-02-05T15:10:03.917Z,7.50
2023-02-05T15:12:33.124Z,7.60
2023-02-05T15:15:27.827Z,9.32
2023-02-05T15:17:59.035Z,8.77
2023-02-05T15:20:32.248Z,8.13
2023-02-05T15:23:11.179Z,7.25
2023-02-05T15:25:50.574Z,6.63
2023-02-05T15:28:48.836Z,7.43
2023-02-05T15:31:29.006Z,8.02
2023-02-05T15:34:08.008Z,11.63
2023-02-05T15:36:41.392Z,8.45
2023-02-05T15:39:36.173Z,10.60
2023-02-05T15:42:05.033Z,9.38
2023-02-05T15:44:34.876Z,8.75
2023-02-05T15:47:05.356Z,8.57
2023-02-05T15:49:36.698Z,9.20
2023-02-05T15:52:04.531Z,8.93
2023-02-05T15:54:33.734Z,8.85
2023-02-05T15:57:00.383Z,10.55
2023-02-05T15:59:30.320Z,9.60
2023-02-05T16:02:08.926Z,8.63
2023-02-05T16:04:40.141Z,9.27
2023-02-05T16:07:18.858Z,9.75
2023-02-05T16:09:52.840Z,9.88
2023-02-05T16:12:21.108Z,10.70
2023-02-05T16:15:07.415Z,10.75
2023-02-05T16:17:48.230Z,12.90
2023-02-05T16:20:15.617Z,14.73
2023-02-05T16:22:52.614Z,11.75
2023-02-05T16:25:28.198Z,8.55
2023-02-05T16:27:57.199Z,9.18
2023-02-05T16:30:46.281Z,7.78
2023-02-05T16:33:20.550Z,8.63
2023-02-05T16:35:48.714Z,8.52
2023-02-05T16:38:18.649Z,9.05
2023-02-05T16:40:48.888Z,8.27
2023-02-05T16:43:36.242Z,8.63
2023-02-05T16:46:08.555Z,9.75
2023-02-05T16:48:41.676Z,9.02
2023-02-05T16:51:28.366Z,10.95
2023-02-05T16:53:54.806Z,9.68
2023-02-05T16:56:30.050Z,9.48
2023-02-05T16:58:59.428Z,9.90
2023-02-05T17:01:29.373Z,8.98
2023-02-05T17:03:56.718Z,8.82
2023-02-05T17:06:23.549Z,9.93
2023-02-05T17:08:52.890Z,10.55
2023-02-05T17:11:37.488Z,7.85
2023-02-05T17:14:35.639Z,7.88
2023-02-05T17:17:14.702Z,8.70
2023-02-05T17:19:41.181Z,11.63
2023-02-05T17:22:14.652Z,8.38
2023-02-05T17:24:52.138Z,7.35
2023-02-05T17:27:32.594Z,7.22
2023-02-05T17:30:00.184Z,7.93
2023-02-05T17:32:28.483Z,6.55
2023-02-05T17:34:55.290Z,7.20
2023-02-05T17:37:22.286Z,8.88
2023-02-05T17:39:51.438Z,7.32
2023-02-05T17:42:27.049Z,7.07
2023-02-05T17:44:53.776Z,7.68
2023-02-05T17:47:20.484Z,7.80
2023-02-05T17:49:47.391Z,7.38
2023-02-05T17:52:15.469Z,7.30
2023-02-05T17:54:42.541Z,5.47
2023-02-05T17:57:18.634Z,7.97
2023-02-05T17:59:45.604Z,6.47
2023-02-05T18:02:14.232Z,6.53
2023-02-05T18:04:42.220Z,7.40
2023-02-05T18:07:36.702Z,6.45
2023-02-05T18:10:03.880Z,6.43
2023-02-05T18:12:30.632Z,7.75
2023-02-05T18:14:58.214Z,7.65
2023-02-05T18:17:24.889Z,4.82
2023-02-05T18:19:51.350Z,6.30
2023-02-05T18:22:17.850Z,6.13
2023-02-05T18:24:44.362Z,7.75
2023-02-05T18:27:12.124Z,5.85
2023-02-05T18:29:39.328Z,6.95
2023-02-05T18:32:06.836Z,5.45
2023-02-05T18:34:33.569Z,7.25
2023-02-05T18:37:00.286Z,7.63
2023-02-05T18:39:28.527Z,6.65
2023-02-05T18:41:56.035Z,7.25
2023-02-05T18:44:22.904Z,6.90
2023-02-05T18:46:49.765Z,8.77
2023-02-05T18:49:16.346Z,8.63
2023-02-05T18:51:43.711Z,7.07
2023-02-05T18:54:10.298Z,7.22
2023-02-05T18:56:37.333Z,6.72
2023-02-05T18:59:07.191Z,7.03
2023-02-05T19:01:37.081Z,6.25
2023-02-05T19:04:08.713Z,8.13
2023-02-05T19:06:36.859Z,17.35
2023-02-05T19:09:04.289Z,24.02
2023-02-05T19:11:31.112Z,8.70
2023-02-05T19:14:03.365Z,7.03
2023-02-05T19:16:32.070Z,5.90
2023-02-05T19:18:58.823Z,7.07
2023-02-05T19:21:30.592Z,7.75
2023-02-05T19:24:05.201Z,8.98
2023-02-05T19:26:33.121Z,6.80
2023-02-05T19:29:01.897Z,6.60
2023-02-05T19:31:30.672Z,6.22
2023-02-05T19:33:57.561Z,7.20
2023-02-05T19:36:25.297Z,7.78
2023-02-05T19:38:52.353Z,7.43
2023-02-05T19:41:22.128Z,7.15
2023-02-05T19:44:02.175Z,6.57
2023-02-05T19:46:31.759Z,8.38
2023-02-05T19:49:04.185Z,7.82
2023-02-05T19:51:30.830Z,7.15
2023-02-05T19:53:58.230Z,7.07
2023-02-05T19:56:25.403Z,8.30
2023-02-05T19:58:54.243Z,8.43
2023-02-05T20:01:23.794Z,9.57
2023-02-05T20:03:51.679Z,8.02
2023-02-05T20:06:20.342Z,9.85
2023-02-05T20:08:47.608Z,9.88
2023-02-05T20:11:15.031Z,8.10
2023-02-05T20:13:42.678Z,6.40
2023-02-05T20:16:16.496Z,7.82
2023-02-05T20:18:44.137Z,11.90
2023-02-05T20:21:12.974Z,11.07
2023-02-05T20:23:40.018Z,10.63
2023-02-05T20:26:07.915Z,9.73
2023-02-05T20:28:59.433Z,10.82
2023-02-05T20:31:37.989Z,10.32
2023-02-05T20:34:09.601Z,10.25
2023-02-05T20:36:37.799Z,11.48
2023-02-05T20:39:07.230Z,10.25
2023-02-05T20:41:34.299Z,10.18
2023-02-05T20:44:01.295Z,11.10
2023-02-05T20:46:27.878Z,12.10
2023-02-05T20:48:54.396Z,10.13
2023-02-05T20:51:22.732Z,11.75
2023-02-05T20:53:49.654Z,9.93
2023-02-05T20:56:19.404Z,10.73
2023-02-05T20:58:46.796Z,11.68
2023-02-05T21:01:19.325Z,14.85
2023-02-05T21:03:49.614Z,13.50
2023-02-05T21:06:18.869Z,16.90
2023-02-05T21:08:47.839Z,18.85
2023-02-05T21:11:16.582Z,13.15
2023-02-05T21:13:44.834Z,11.85
2023-02-05T21:16:13.690Z,10.82
2023-02-05T21:18:40.575Z,11.13
2023-02-05T21:21:14.575Z,12.98
2023-02-05T21:23:41.748Z,14.52
2023-02-05T21:26:09.050Z,10.27
2023-02-05T21:28:35.506Z,11.40
2023-02-05T21:31:08.442Z,9.38
2023-02-05T21:33:35.936Z,9.10
2023-02-05T21:36:05.001Z,10.97
2023-02-05T21:38:35.297Z,7.90
2023-02-05T21:41:15.555Z,7.30
2023-02-05T21:43:42.455Z,8.40
2023-02-05T21:46:12.990Z,9.43
2023-02-05T21:48:39.861Z,9.50
2023-02-05T21:51:08.876Z,9.90
2023-02-05T21:53:35.733Z,10.27
2023-02-05T21:56:04.224Z,8.60
2023-02-05T21:58:32.510Z,11.23
2023-02-05T22:01:16.241Z,10.05
2023-02-05T22:03:44.073Z,10.65
2023-02-05T22:06:10.483Z,8.10
2023-02-05T22:08:38.733Z,10.53
2023-02-05T22:11:08.080Z,8.03
2023-02-05T22:13:37.520Z,7.90
2023-02-05T22:16:06.518Z,7.70
2023-02-05T22:18:34.013Z,7.63
2023-02-05T22:21:16.460Z,9.80
2023-02-05T22:23:45.007Z,9.90
2023-02-05T22:26:12.129Z,10.27
2023-02-05T22:28:38.810Z,7.73
2023-02-05T22:31:11.431Z,9.90
2023-02-05T22:33:39.820Z,11.67
2023-02-05T22:36:08.661Z,8.87
2023-02-05T22:38:37.288Z,11.90
2023-02-05T22:41:12.017Z,11.10
2023-02-05T22:43:39.417Z,10.13
2023-02-05T22:46:17.091Z,9.60
2023-02-05T22:48:46.164Z,8.73
2023-02-05T22:51:18.746Z,10.67
2023-02-05T22:53:45.335Z,8.80
2023-02-05T22:56:13.209Z,8.07
2023-02-05T22:58:41.829Z,8.50
2023-02-05T23:01:15.416Z,8.90
2023-02-05T23:03:44.142Z,10.07
2023-02-05T23:06:15.703Z,8.17
2023-02-05T23:08:42.613Z,9.35
2023-02-05T23:11:12.911Z,8.40
2023-02-05T23:13:43.195Z,8.97
2023-02-05T23:16:14.803Z,9.90
2023-02-05T23:18:41.987Z,9.35
2023-02-05T23:21:14.556Z,8.93
2023-02-05T23:23:41.530Z,8.87
2023-02-05T23:26:21.887Z,8.77
2023-02-05T23:28:49.569Z,8.93
2023-02-05T23:31:16.759Z,8.03
2023-02-05T23:33:43.353Z,7.40
2023-02-05T23:36:10.345Z,8.60
2023-02-05T23:38:37.182Z,8.77
2023-02-05T23:41:04.357Z,7.97
2023-02-05T23:43:32.258Z,8.00
2023-02-05T23:45:59.013Z,9.60
2023-02-05T23:48:25.472Z,8.38
2023-02-05T23:50:53.667Z,9.33
2023-02-05T23:53:21.145Z,8.53
2023-02-05T23:55:49.494Z,9.63
2023-02-05T23:58:17.315Z,9.63
